Airfield :
LOGIN :

Register | Disclaimer

   EN    FR    IT 

 










Legend :    VFR   Marginal VFR   IFR   Intensive IFR   Very Intensive IFR
Visi :
Ceiling :
>= 8 km
>= 3000ft
5 to 8 km
1000 to 3000 ft
1500m to 5 km
500 to 1000 ft
800 to 1500m
200 to 500 ft
< 800m
< 200 ft
Symbols :   Thunderstorms  Fog  Heavy snow  Heavy precipitations  Wind > 20 kt
SIGMETs :     Misc.  Thunderstorms  Icing  Turbulence  Mountain Waves  Volcanic Ashes







- Airport Elevation : 39 ft
- IATA code : ANR


EBAW - Anvers / Antwerpen Deurne

CURRENT METAR :
  • 191620Z 32008KT 9999 FEW032 16/09 Q1020 NOSIG

EXPIRED METARs :
  • 191550Z 31007KT 9999 FEW032 17/09 Q1019 NOSIG
  • 191520Z 30006KT 260V020 9999 FEW032 16/09 Q1019 NOSIG
  • 191450Z 36005KT 340V040 9999 FEW035 16/10 Q1019 NOSIG
  • 191420Z 35006KT 320V020 9999 SCT035 16/10 Q1019 NOSIG
  • 191350Z 01005KT 9999 SCT035 17/08 Q1019 NOSIG

TAF TAF EBAW
Valid from the 19 at 15:00 until the 20 at 00:00 UTC


191420Z 1915/1924 33005KT 9999 SCT035
No reported NOTAMs for that airfield.



MET'MAP, your aeronautical weather chart ! - Copyright ORBIFLY December 2007 - Disclaimer

ORBIFLY MET'MAP TEAM :

Programming & Development : Alexandra Zaïnal
Concept & Development : Baudouin d'Aumeries
Co-Development & Prog : Marc-Olivier Méhu
Technical & hardware support : Manuel Goepfert

Contact : metmap@orbifly.com




SOURCES & CREDITS :

   NOAA